sensor_id;sensor_type;location;lat;lon;timestamp;pressure;altitude;pressure_sealevel;temperature;humidity
14343;BME280;7255;53.596;9.960;2022-09-24T00:01:25;101116.03;;;12.85;100.00
14343;BME280;7255;53.596;9.960;2022-09-24T00:03:53;101118.03;;;12.90;100.00
14343;BME280;7255;53.596;9.960;2022-09-24T00:06:19;101111.34;;;12.93;100.00
14343;BME280;7255;53.596;9.960;2022-09-24T00:08:47;101109.25;;;12.95;100.00
14343;BME280;7255;53.596;9.960;2022-09-24T00:11:14;101104.34;;;12.92;100.00
14343;BME280;7255;53.596;9.960;2022-09-24T00:13:43;101114.28;;;12.91;100.00
14343;BME280;7255;53.596;9.960;2022-09-24T00:16:10;101116.28;;;12.96;100.00
14343;BME280;7255;53.596;9.960;2022-09-24T00:18:39;101108.53;;;12.87;100.00
14343;BME280;7255;53.596;9.960;2022-09-24T00:21:11;101108.28;;;12.77;100.00
14343;BME280;7255;53.596;9.960;2022-09-24T00:23:38;101109.81;;;12.85;100.00
14343;BME280;7255;53.596;9.960;2022-09-24T00:26:04;101109.72;;;12.92;100.00
14343;BME280;7255;53.596;9.960;2022-09-24T00:28:48;101114.28;;;12.91;100.00
14343;BME280;7255;53.596;9.960;2022-09-24T00:31:15;101101.87;;;12.90;100.00
14343;BME280;7255;53.596;9.960;2022-09-24T00:33:42;101116.88;;;12.86;100.00
14343;BME280;7255;53.596;9.960;2022-09-24T00:36:09;101116.94;;;12.79;100.00
14343;BME280;7255;53.596;9.960;2022-09-24T00:38:35;101109.53;;;12.75;100.00
14343;BME280;7255;53.596;9.960;2022-09-24T00:41:02;101106.16;;;12.79;100.00
14343;BME280;7255;53.596;9.960;2022-09-24T00:43:31;101099.13;;;12.78;100.00
14343;BME280;7255;53.596;9.960;2022-09-24T00:46:06;101097.84;;;12.81;100.00
14343;BME280;7255;53.596;9.960;2022-09-24T00:48:33;101099.84;;;12.85;100.00
14343;BME280;7255;53.596;9.960;2022-09-24T00:51:02;101093.63;;;12.85;100.00
14343;BME280;7255;53.596;9.960;2022-09-24T00:53:29;101088.25;;;12.85;100.00
14343;BME280;7255;53.596;9.960;2022-09-24T00:55:57;101092.25;;;12.94;100.00
14343;BME280;7255;53.596;9.960;2022-09-24T00:58:25;101093.53;;;12.92;100.00
14343;BME280;7255;53.596;9.960;2022-09-24T01:00:56;101099.75;;;12.92;100.00
14343;BME280;7255;53.596;9.960;2022-09-24T01:03:24;101088.59;;;12.88;100.00
14343;BME280;7255;53.596;9.960;2022-09-24T01:05:52;101087.78;;;12.88;100.00
14343;BME280;7255;53.596;9.960;2022-09-24T01:08:20;101095.28;;;12.86;100.00
14343;BME280;7255;53.596;9.960;2022-09-24T01:10:57;101082.84;;;12.85;100.00
14343;BME280;7255;53.596;9.960;2022-09-24T01:13:36;101080.75;;;12.87;100.00
14343;BME280;7255;53.596;9.960;2022-09-24T01:16:12;101087.66;;;12.83;100.00
14343;BME280;7255;53.596;9.960;2022-09-24T01:18:44;101091.97;;;12.84;100.00
14343;BME280;7255;53.596;9.960;2022-09-24T01:21:22;101084.50;;;12.86;100.00
14343;BME280;7255;53.596;9.960;2022-09-24T01:24:02;101091.16;;;12.83;100.00
14343;BME280;7255;53.596;9.960;2022-09-24T01:26:46;101090.72;;;12.86;100.00
14343;BME280;7255;53.596;9.960;2022-09-24T01:29:27;101083.31;;;12.82;100.00
14343;BME280;7255;53.596;9.960;2022-09-24T01:31:58;101079.78;;;12.69;100.00
14343;BME280;7255;53.596;9.960;2022-09-24T01:34:36;101083.50;;;12.68;100.00
14343;BME280;7255;53.596;9.960;2022-09-24T01:37:05;101079.28;;;12.73;100.00
14343;BME280;7255;53.596;9.960;2022-09-24T01:39:32;101072.16;;;12.78;100.00
14343;BME280;7255;53.596;9.960;2022-09-24T01:42:00;101074.19;;;12.83;100.00
14343;BME280;7255;53.596;9.960;2022-09-24T01:44:28;101066.69;;;12.85;100.00
14343;BME280;7255;53.596;9.960;2022-09-24T01:46:55;101071.63;;;12.88;100.00
14343;BME280;7255;53.596;9.960;2022-09-24T01:49:23;101062.94;;;12.86;100.00
14343;BME280;7255;53.596;9.960;2022-09-24T01:51:52;101064.09;;;12.90;100.00
14343;BME280;7255;53.596;9.960;2022-09-24T01:54:25;101067.03;;;12.88;100.00
14343;BME280;7255;53.596;9.960;2022-09-24T01:56:56;101064.56;;;12.87;100.00
14343;BME280;7255;53.596;9.960;2022-09-24T01:59:29;101063.75;;;12.86;100.00
14343;BME280;7255;53.596;9.960;2022-09-24T02:02:00;101055.44;;;12.88;100.00
14343;BME280;7255;53.596;9.960;2022-09-24T02:04:29;101064.09;;;12.90;100.00
14343;BME280;7255;53.596;9.960;2022-09-24T02:07:03;101065.00;;;12.84;100.00
14343;BME280;7255;53.596;9.960;2022-09-24T02:09:31;101052.16;;;12.86;100.00
14343;BME280;7255;53.596;9.960;2022-09-24T02:12:07;101061.63;;;12.88;100.00
14343;BME280;7255;53.596;9.960;2022-09-24T02:14:38;101054.22;;;12.84;100.00
14343;BME280;7255;53.596;9.960;2022-09-24T02:17:08;101052.59;;;12.83;100.00
14343;BME280;7255;53.596;9.960;2022-09-24T02:19:37;101054.22;;;12.84;100.00
14343;BME280;7255;53.596;9.960;2022-09-24T02:22:06;101047.66;;;12.80;100.00
14343;BME280;7255;53.596;9.960;2022-09-24T02:24:38;101052.16;;;12.86;100.00
14343;BME280;7255;53.596;9.960;2022-09-24T02:27:08;101057.41;;;12.93;100.00
14343;BME280;7255;53.596;9.960;2022-09-24T02:29:34;101053.56;;;13.00;100.00
14343;BME280;7255;53.596;9.960;2022-09-24T02:32:04;101043.97;;;13.04;100.00
14343;BME280;7255;53.596;9.960;2022-09-24T02:34:33;101048.06;;;13.07;100.00
14343;BME280;7255;53.596;9.960;2022-09-24T02:37:03;101053.09;;;13.03;100.00
14343;BME280;7255;53.596;9.960;2022-09-24T02:39:30;101054.84;;;12.98;100.00
14343;BME280;7255;53.596;9.960;2022-09-24T02:41:57;101050.16;;;12.93;100.00
14343;BME280;7255;53.596;9.960;2022-09-24T02:44:23;101045.00;;;12.92;100.00
14343;BME280;7255;53.596;9.960;2022-09-24T02:46:50;101052.88;;;12.93;100.00
14343;BME280;7255;53.596;9.960;2022-09-24T02:49:17;101047.94;;;12.90;100.00
14343;BME280;7255;53.596;9.960;2022-09-24T02:51:44;101056.16;;;12.95;100.00
14343;BME280;7255;53.596;9.960;2022-09-24T02:54:11;101054.13;;;12.90;100.00
14343;BME280;7255;53.596;9.960;2022-09-24T02:56:37;101051.78;;;12.82;100.00
14343;BME280;7255;53.596;9.960;2022-09-24T02:59:04;101043.44;;;12.84;100.00
14343;BME280;7255;53.596;9.960;2022-09-24T03:01:32;101035.72;;;12.76;100.00
14343;BME280;7255;53.596;9.960;2022-09-24T03:03:59;101044.03;;;12.74;100.00
14343;BME280;7255;53.596;9.960;2022-09-24T03:06:27;101042.75;;;12.77;100.00
14343;BME280;7255;53.596;9.960;2022-09-24T03:08:54;101041.47;;;12.79;100.00
14343;BME280;7255;53.596;9.960;2022-09-24T03:11:20;101038.06;;;12.84;100.00
14343;BME280;7255;53.596;9.960;2022-09-24T03:13:47;101032.66;;;12.84;100.00
14343;BME280;7255;53.596;9.960;2022-09-24T03:16:15;101035.12;;;12.85;100.00
14343;BME280;7255;53.596;9.960;2022-09-24T03:18:42;101037.59;;;12.87;100.00
14343;BME280;7255;53.596;9.960;2022-09-24T03:21:10;101035.03;;;12.92;100.00
14343;BME280;7255;53.596;9.960;2022-09-24T03:23:38;101039.63;;;12.92;100.00
14343;BME280;7255;53.596;9.960;2022-09-24T03:26:05;101044.53;;;12.95;100.00
14343;BME280;7255;53.596;9.960;2022-09-24T03:28:31;101042.91;;;12.94;100.00
14343;BME280;7255;53.596;9.960;2022-09-24T03:30:58;101042.91;;;12.94;100.00
14343;BME280;7255;53.596;9.960;2022-09-24T03:33:28;101041.59;;;12.96;100.00
14343;BME280;7255;53.596;9.960;2022-09-24T03:35:55;101036.31;;;12.89;100.00
14343;BME280;7255;53.596;9.960;2022-09-24T03:38:22;101040.44;;;12.92;100.00
14343;BME280;7255;53.596;9.960;2022-09-24T03:40:50;101037.94;;;12.90;100.00
14343;BME280;7255;53.596;9.960;2022-09-24T03:43:16;101037.50;;;12.94;100.00
14343;BME280;7255;53.596;9.960;2022-09-24T03:45:43;101046.06;;;13.02;100.00
14343;BME280;7255;53.596;9.960;2022-09-24T03:48:09;101040.69;;;13.02;100.00
14343;BME280;7255;53.596;9.960;2022-09-24T03:50:36;101032.91;;;12.94;100.00
14343;BME280;7255;53.596;9.960;2022-09-24T03:53:03;101031.97;;;13.00;100.00
14343;BME280;7255;53.596;9.960;2022-09-24T03:55:29;101036.69;;;12.93;100.00
14343;BME280;7255;53.596;9.960;2022-09-24T03:57:57;101030.81;;;12.96;100.00
14343;BME280;7255;53.596;9.960;2022-09-24T04:00:23;101029.06;;;13.02;100.00
14343;BME280;7255;53.596;9.960;2022-09-24T04:02:49;101040.69;;;13.02;100.00
14343;BME280;7255;53.596;9.960;2022-09-24T04:05:16;101032.91;;;12.94;100.00
14343;BME280;7255;53.596;9.960;2022-09-24T04:07:42;101026.59;;;13.00;100.00
14343;BME280;7255;53.596;9.960;2022-09-24T04:10:09;101030.44;;;12.93;100.00
14343;BME280;7255;53.596;9.960;2022-09-24T04:12:35;101023.06;;;12.88;100.00
14343;BME280;7255;53.596;9.960;2022-09-24T04:15:03;101019.31;;;12.89;100.00
14343;BME280;7255;53.596;9.960;2022-09-24T04:17:30;101018.94;;;12.85;100.00
14343;BME280;7255;53.596;9.960;2022-09-24T04:19:56;101024.47;;;12.79;100.00
14343;BME280;7255;53.596;9.960;2022-09-24T04:22:22;101022.94;;;12.83;100.00
14343;BME280;7255;53.596;9.960;2022-09-24T04:24:49;101019.06;;;12.79;100.00
14343;BME280;7255;53.596;9.960;2022-09-24T04:27:16;101018.59;;;12.82;100.00
14343;BME280;7255;53.596;9.960;2022-09-24T04:29:43;101022.72;;;12.84;100.00
14343;BME280;7255;53.596;9.960;2022-09-24T04:32:10;101018.94;;;12.85;100.00
14343;BME280;7255;53.596;9.960;2022-09-24T04:34:36;101009.91;;;12.80;100.00
14343;BME280;7255;53.596;9.960;2022-09-24T04:37:03;101012.03;;;12.78;100.00
14343;BME280;7255;53.596;9.960;2022-09-24T04:39:30;101009.19;;;12.73;100.00
14343;BME280;7255;53.596;9.960;2022-09-24T04:41:56;101009.69;;;12.69;100.00
14343;BME280;7255;53.596;9.960;2022-09-24T04:44:22;101008.47;;;12.65;100.00
14343;BME280;7255;53.596;9.960;2022-09-24T04:46:49;101009.41;;;12.59;100.00
14343;BME280;7255;53.596;9.960;2022-09-24T04:49:17;101007.88;;;12.51;100.00
14343;BME280;7255;53.596;9.960;2022-09-24T04:51:43;101000.94;;;12.44;100.00
14343;BME280;7255;53.596;9.960;2022-09-24T04:54:10;101006.34;;;12.44;100.00
14343;BME280;7255;53.596;9.960;2022-09-24T04:56:36;101009.25;;;12.42;100.00
14343;BME280;7255;53.596;9.960;2022-09-24T04:59:03;100996.75;;;12.48;100.00
14343;BME280;7255;53.596;9.960;2022-09-24T05:01:29;101003.75;;;12.49;100.00
14343;BME280;7255;53.596;9.960;2022-09-24T05:03:55;101009.50;;;12.52;100.00
14343;BME280;7255;53.596;9.960;2022-09-24T05:06:23;101015.63;;;12.60;100.00
14343;BME280;7255;53.596;9.960;2022-09-24T05:08:49;101008.59;;;12.59;100.00
14343;BME280;7255;53.596;9.960;2022-09-24T05:11:15;101014.81;;;12.59;100.00
14343;BME280;7255;53.596;9.960;2022-09-24T05:13:43;101010.72;;;12.57;100.00
14343;BME280;7255;53.596;9.960;2022-09-24T05:16:09;101006.13;;;12.57;100.00
14343;BME280;7255;53.596;9.960;2022-09-24T05:18:36;101006.94;;;12.58;100.00
14343;BME280;7255;53.596;9.960;2022-09-24T05:21:02;101004.25;;;12.46;100.00
14343;BME280;7255;53.596;9.960;2022-09-24T05:23:30;101009.63;;;12.46;100.00
14343;BME280;7255;53.596;9.960;2022-09-24T05:25:56;101004.97;;;12.53;100.00
14343;BME280;7255;53.596;9.960;2022-09-24T05:28:46;101020.19;;;12.59;100.00
14343;BME280;7255;53.596;9.960;2022-09-24T05:31:12;101012.34;;;12.58;100.00
14343;BME280;7255;53.596;9.960;2022-09-24T05:33:38;101018.53;;;12.58;100.00
14343;BME280;7255;53.596;9.960;2022-09-24T05:36:05;101006.50;;;12.61;100.00
14343;BME280;7255;53.596;9.960;2022-09-24T05:38:33;101016.13;;;12.68;100.00
14343;BME280;7255;53.596;9.960;2022-09-24T05:40:59;101017.06;;;12.74;100.00
14343;BME280;7255;53.596;9.960;2022-09-24T05:43:25;101011.09;;;12.84;100.00
14343;BME280;7255;53.596;9.960;2022-09-24T05:45:52;101011.66;;;12.74;100.00
14343;BME280;7255;53.596;9.960;2022-09-24T05:48:21;101013.41;;;12.68;100.00
14343;BME280;7255;53.596;9.960;2022-09-24T05:50:47;101017.50;;;12.71;100.00
14343;BME280;7255;53.596;9.960;2022-09-24T05:53:13;101019.53;;;12.76;100.00
14343;BME280;7255;53.596;9.960;2022-09-24T05:55:42;101023.63;;;12.78;100.00
14343;BME280;7255;53.596;9.960;2022-09-24T05:58:09;101023.16;;;12.81;100.00
14343;BME280;7255;53.596;9.960;2022-09-24T06:00:36;101018.12;;;12.85;100.00
14343;BME280;7255;53.596;9.960;2022-09-24T06:03:04;101019.44;;;12.82;100.00
14343;BME280;7255;53.596;9.960;2022-09-24T06:05:32;101017.88;;;12.75;100.00
14343;BME280;7255;53.596;9.960;2022-09-24T06:08:00;101019.44;;;12.82;100.00
14343;BME280;7255;53.596;9.960;2022-09-24T06:10:26;101019.78;;;12.86;100.00
14343;BME280;7255;53.596;9.960;2022-09-24T06:12:54;101022.59;;;12.91;100.00
14343;BME280;7255;53.596;9.960;2022-09-24T06:15:20;101021.69;;;12.97;100.00
14343;BME280;7255;53.596;9.960;2022-09-24T06:17:47;101030.34;;;12.99;100.00
14343;BME280;7255;53.596;9.960;2022-09-24T06:20:13;101020.81;;;12.97;100.00
14343;BME280;7255;53.596;9.960;2022-09-24T06:22:39;101028.59;;;13.05;100.00
14343;BME280;7255;53.596;9.960;2022-09-24T06:25:07;101033.63;;;13.01;100.00
14343;BME280;7255;53.596;9.960;2022-09-24T06:27:33;101036.19;;;12.96;100.00
14343;BME280;7255;53.596;9.960;2022-09-24T06:30:01;101031.75;;;12.90;100.00
14343;BME280;7255;53.596;9.960;2022-09-24T06:32:28;101030.00;;;12.96;100.00
14343;BME280;7255;53.596;9.960;2022-09-24T06:34:55;101037.00;;;12.97;100.00
14343;BME280;7255;53.596;9.960;2022-09-24T06:37:21;101033.72;;;12.95;100.00
14343;BME280;7255;53.596;9.960;2022-09-24T06:39:47;101029.63;;;12.92;100.00
14343;BME280;7255;53.596;9.960;2022-09-24T06:42:14;101037.13;;;12.90;100.00
14343;BME280;7255;53.596;9.960;2022-09-24T06:44:40;101035.50;;;12.89;100.00
14343;BME280;7255;53.596;9.960;2022-09-24T06:47:07;101035.03;;;12.92;100.00
14343;BME280;7255;53.596;9.960;2022-09-24T06:49:34;101033.16;;;12.81;100.00
14343;BME280;7255;53.596;9.960;2022-09-24T06:52:01;101034.03;;;12.75;100.00
14343;BME280;7255;53.596;9.960;2022-09-24T06:54:28;101032.41;;;12.74;100.00
14343;BME280;7255;53.596;9.960;2022-09-24T06:56:54;101041.09;;;12.76;100.00
14343;BME280;7255;53.596;9.960;2022-09-24T06:59:21;101047.22;;;12.83;100.00
14343;BME280;7255;53.596;9.960;2022-09-24T07:01:47;101039.72;;;12.85;100.00
14343;BME280;7255;53.596;9.960;2022-09-24T07:04:15;101054.03;;;12.97;100.00
14343;BME280;7255;53.596;9.960;2022-09-24T07:06:41;101049.41;;;12.74;100.00
14343;BME280;7255;53.596;9.960;2022-09-24T07:09:25;101054.81;;;12.74;100.00
14343;BME280;7255;53.596;9.960;2022-09-24T07:11:51;101051.06;;;12.75;100.00
14343;BME280;7255;53.596;9.960;2022-09-24T07:14:18;101053.78;;;12.87;100.00
14343;BME280;7255;53.596;9.960;2022-09-24T07:16:46;101053.56;;;13.00;100.00
14343;BME280;7255;53.596;9.960;2022-09-24T07:19:12;101048.88;;;13.07;100.00
14343;BME280;7255;53.596;9.960;2022-09-24T07:21:40;101047.25;;;13.06;100.00
14343;BME280;7255;53.596;9.960;2022-09-24T07:24:06;101056.38;;;13.05;100.00
14343;BME280;7255;53.596;9.960;2022-09-24T07:26:32;101048.88;;;13.07;100.00
14343;BME280;7255;53.596;9.960;2022-09-24T07:28:59;101046.06;;;13.02;100.00
14343;BME280;7255;53.596;9.960;2022-09-24T07:31:25;101056.16;;;12.95;100.00
14343;BME280;7255;53.596;9.960;2022-09-24T07:33:52;101064.47;;;12.94;100.00
14343;BME280;7255;53.596;9.960;2022-09-24T07:36:18;101065.62;;;12.98;100.00
14343;BME280;7255;53.596;9.960;2022-09-24T07:38:46;101053.31;;;12.90;100.00
14343;BME280;7255;53.596;9.960;2022-09-24T07:41:12;101058.44;;;12.80;100.00
14343;BME280;7255;53.596;9.960;2022-09-24T07:43:38;101062.56;;;12.82;100.00
14343;BME280;7255;53.596;9.960;2022-09-24T07:46:07;101068.34;;;12.86;100.00
14343;BME280;7255;53.596;9.960;2022-09-24T07:48:33;101068.06;;;12.76;100.00
14343;BME280;7255;53.596;9.960;2022-09-24T07:51:00;101065.13;;;12.77;100.00
14343;BME280;7255;53.596;9.960;2022-09-24T07:53:26;101067.13;;;12.82;100.00
14343;BME280;7255;53.596;9.960;2022-09-24T07:55:57;101063.38;;;12.83;100.00
14343;BME280;7255;53.596;9.960;2022-09-24T07:58:23;101062.44;;;12.89;100.00
14343;BME280;7255;53.596;9.960;2022-09-24T08:00:50;101063.28;;;12.89;100.00
14343;BME280;7255;53.596;9.960;2022-09-24T08:03:16;101068.56;;;12.96;100.00
14343;BME280;7255;53.596;9.960;2022-09-24T08:05:42;101070.94;;;13.04;100.00
14343;BME280;7255;53.596;9.960;2022-09-24T08:08:10;101072.38;;;13.19;100.00
14343;BME280;7255;53.596;9.960;2022-09-24T08:10:36;101075.66;;;13.21;100.00
14343;BME280;7255;53.596;9.960;2022-09-24T08:13:04;101075.88;;;13.19;100.00
14343;BME280;7255;53.596;9.960;2022-09-24T08:15:30;101073.53;;;13.23;100.00
14343;BME280;7255;53.596;9.960;2022-09-24T08:17:59;101076.81;;;13.25;100.00
14343;BME280;7255;53.596;9.960;2022-09-24T08:20:26;101075.66;;;13.21;100.00
14343;BME280;7255;53.596;9.960;2022-09-24T08:22:52;101075.09;;;13.31;100.00
14343;BME280;7255;53.596;9.960;2022-09-24T08:25:19;101077.97;;;13.29;100.00
14343;BME280;7255;53.596;9.960;2022-09-24T08:27:45;101071.78;;;13.28;100.00
14343;BME280;7255;53.596;9.960;2022-09-24T08:30:13;101074.44;;;13.17;100.00
14343;BME280;7255;53.596;9.960;2022-09-24T08:32:45;101084.78;;;13.20;100.00
14343;BME280;7255;53.596;9.960;2022-09-24T08:35:11;101089.47;;;13.13;100.00
14343;BME280;7255;53.596;9.960;2022-09-24T08:37:40;101081.03;;;13.21;100.00
14343;BME280;7255;53.596;9.960;2022-09-24T08:40:08;101077.03;;;13.23;100.00
14343;BME280;7255;53.596;9.960;2022-09-24T08:42:44;101087.06;;;13.35;100.00
14343;BME280;7255;53.596;9.960;2022-09-24T08:45:15;101080.72;;;13.41;100.00
14343;BME280;7255;53.596;9.960;2022-09-24T08:48:03;101084.47;;;13.40;100.00
14343;BME280;7255;53.596;9.960;2022-09-24T08:50:35;101082.00;;;13.38;100.00
14343;BME280;7255;53.596;9.960;2022-09-24T08:53:11;101085.06;;;13.54;100.00
14343;BME280;7255;53.596;9.960;2022-09-24T08:55:43;101086.34;;;13.63;100.00
14343;BME280;7255;53.596;9.960;2022-09-24T08:58:25;101089.25;;;13.73;100.00
14343;BME280;7255;53.596;9.960;2022-09-24T09:00:58;101085.97;;;13.71;100.00
14343;BME280;7255;53.596;9.960;2022-09-24T09:03:34;101089.50;;;13.83;100.00
14343;BME280;7255;53.596;9.960;2022-09-24T09:06:03;101094.44;;;13.86;100.00
14343;BME280;7255;53.596;9.960;2022-09-24T09:08:42;101093.12;;;13.89;100.00
14343;BME280;7255;53.596;9.960;2022-09-24T09:11:14;101100.03;;;13.97;100.00
14343;BME280;7255;53.596;9.960;2022-09-24T09:13:43;101107.56;;;13.95;100.00
14343;BME280;7255;53.596;9.960;2022-09-24T09:16:21;101107.09;;;13.98;100.00
14343;BME280;7255;53.596;9.960;2022-09-24T09:18:49;101101.69;;;13.98;100.00
14343;BME280;7255;53.596;9.960;2022-09-24T09:21:25;101105.31;;;14.03;100.00
14343;BME280;7255;53.596;9.960;2022-09-24T09:23:55;101104.28;;;13.93;100.00
14343;BME280;7255;53.596;9.960;2022-09-24T09:26:24;101106.50;;;13.84;100.00
14343;BME280;7255;53.596;9.960;2022-09-24T09:28:51;101105.22;;;13.86;100.00
14343;BME280;7255;53.596;9.960;2022-09-24T09:31:31;101100.28;;;13.83;100.00
14343;BME280;7255;53.596;9.960;2022-09-24T09:34:14;101106.28;;;13.85;100.00
14343;BME280;7255;53.596;9.960;2022-09-24T09:36:54;101099.81;;;13.86;100.00
14343;BME280;7255;53.596;9.960;2022-09-24T09:39:41;101103.53;;;13.97;100.00
14343;BME280;7255;53.596;9.960;2022-09-24T09:42:24;101107.91;;;13.98;100.00
14343;BME280;7255;53.596;9.960;2022-09-24T09:44:51;101100.16;;;13.90;100.00
14343;BME280;7255;53.596;9.960;2022-09-24T09:47:25;101101.47;;;13.88;100.00
14343;BME280;7255;53.596;9.960;2022-09-24T09:49:56;101102.88;;;13.78;100.00
14343;BME280;7255;53.596;9.960;2022-09-24T09:52:27;101102.88;;;13.78;100.00
14343;BME280;7255;53.596;9.960;2022-09-24T09:54:55;101102.75;;;13.85;100.00
14343;BME280;7255;53.596;9.960;2022-09-24T09:57:23;101106.84;;;13.88;100.00
14343;BME280;7255;53.596;9.960;2022-09-24T09:59:51;101107.09;;;13.98;100.00
14343;BME280;7255;53.596;9.960;2022-09-24T10:02:24;101106.94;;;14.04;100.00
14343;BME280;7255;53.596;9.960;2022-09-24T10:04:52;101108.00;;;13.92;100.00
14343;BME280;7255;53.596;9.960;2022-09-24T10:07:20;101102.03;;;14.01;100.00
14343;BME280;7255;53.596;9.960;2022-09-24T10:09:58;101107.97;;;14.15;100.00
14343;BME280;7255;53.596;9.960;2022-09-24T10:12:26;101100.66;;;14.28;100.00
14343;BME280;7255;53.596;9.960;2022-09-24T10:14:57;101101.34;;;14.35;100.00
14343;BME280;7255;53.596;9.960;2022-09-24T10:17:28;101100.38;;;14.41;100.00
14343;BME280;7255;53.596;9.960;2022-09-24T10:19:55;101098.75;;;14.40;100.00
14343;BME280;7255;53.596;9.960;2022-09-24T10:22:23;101104.72;;;14.42;100.00
14343;BME280;7255;53.596;9.960;2022-09-24T10:24:52;101108.09;;;14.49;100.00
14343;BME280;7255;53.596;9.960;2022-09-24T10:27:22;101097.28;;;14.49;100.00
14343;BME280;7255;53.596;9.960;2022-09-24T10:29:53;101101.91;;;14.37;100.00
14343;BME280;7255;53.596;9.960;2022-09-24T10:32:55;101104.87;;;14.64;100.00
14343;BME280;7255;53.596;9.960;2022-09-24T10:35:25;101106.25;;;14.78;100.00
14343;BME280;7255;53.596;9.960;2022-09-24T10:37:53;101109.34;;;14.87;100.00
14343;BME280;7255;53.596;9.960;2022-09-24T10:40:22;101108.37;;;14.76;100.00
14343;BME280;7255;53.596;9.960;2022-09-24T10:42:56;101100.97;;;14.89;100.00
14343;BME280;7255;53.596;9.960;2022-09-24T10:45:30;101107.25;;;14.89;100.00
14343;BME280;7255;53.596;9.960;2022-09-24T10:48:05;101107.25;;;14.89;100.00
14343;BME280;7255;53.596;9.960;2022-09-24T10:50:41;101112.66;;;14.89;100.00
14343;BME280;7255;53.596;9.960;2022-09-24T10:53:13;101107.19;;;14.72;100.00
14343;BME280;7255;53.596;9.960;2022-09-24T10:55:45;101105.84;;;14.58;100.00
14343;BME280;7255;53.596;9.960;2022-09-24T10:58:29;101104.56;;;14.60;100.00
14343;BME280;7255;53.596;9.960;2022-09-24T11:01:10;101108.16;;;14.66;100.00
14343;BME280;7255;53.596;9.960;2022-09-24T11:03:52;101105.72;;;14.65;100.00
14343;BME280;7255;53.596;9.960;2022-09-24T11:06:34;101101.84;;;14.49;100.00
14343;BME280;7255;53.596;9.960;2022-09-24T11:09:14;101109.16;;;14.48;100.00
14343;BME280;7255;53.596;9.960;2022-09-24T11:11:52;101109.38;;;14.47;100.00
14343;BME280;7255;53.596;9.960;2022-09-24T11:14:39;101100.03;;;14.37;100.00
14343;BME280;7255;53.596;9.960;2022-09-24T11:17:22;101097.75;;;14.46;100.00
14343;BME280;7255;53.596;9.960;2022-09-24T11:20:08;101099.91;;;14.44;100.00
14343;BME280;7255;53.596;9.960;2022-09-24T11:22:49;101099.06;;;14.43;100.00
14343;BME280;7255;53.596;9.960;2022-09-24T11:25:28;101095.47;;;14.38;100.00
14343;BME280;7255;53.596;9.960;2022-09-24T11:28:10;101093.47;;;14.33;100.00
14343;BME280;7255;53.596;9.960;2022-09-24T11:30:48;101092.78;;;14.26;100.00
14343;BME280;7255;53.596;9.960;2022-09-24T11:33:29;101101.00;;;14.31;100.00
14343;BME280;7255;53.596;9.960;2022-09-24T11:36:07;101097.66;;;14.41;100.00
14343;BME280;7255;53.596;9.960;2022-09-24T11:38:55;101105.97;;;14.51;100.00
14343;BME280;7255;53.596;9.960;2022-09-24T11:41:36;101094.22;;;14.57;100.00
14343;BME280;7255;53.596;9.960;2022-09-24T11:44:21;101100.91;;;14.55;100.00
14343;BME280;7255;53.596;9.960;2022-09-24T11:47:01;101100.56;;;14.51;100.00
14343;BME280;7255;53.596;9.960;2022-09-24T11:49:46;101098.75;;;14.40;100.00
14343;BME280;7255;53.596;9.960;2022-09-24T11:52:24;101104.81;;;14.47;100.00
14343;BME280;7255;53.596;9.960;2022-09-24T11:54:58;101101.28;;;14.58;100.00
14343;BME280;7255;53.596;9.960;2022-09-24T11:57:31;101105.16;;;14.51;100.00
14343;BME280;7255;53.596;9.960;2022-09-24T12:00:00;101096.44;;;14.49;100.00
14343;BME280;7255;53.596;9.960;2022-09-24T12:02:34;101097.03;;;14.62;100.00
14343;BME280;7255;53.596;9.960;2022-09-24T12:05:05;101091.94;;;14.66;100.00
14343;BME280;7255;53.596;9.960;2022-09-24T12:07:37;101100.97;;;14.72;100.00
14343;BME280;7255;53.596;9.960;2022-09-24T12:10:27;101101.31;;;14.75;100.00
14343;BME280;7255;53.596;9.960;2022-09-24T12:12:59;101104.78;;;14.88;100.00
14343;BME280;7255;53.596;9.960;2022-09-24T12:15:34;101100.84;;;14.95;100.00
14343;BME280;7255;53.596;9.960;2022-09-24T12:18:06;101103.94;;;14.87;100.00
14343;BME280;7255;53.596;9.960;2022-09-24T12:20:43;101104.44;;;14.84;100.00
14343;BME280;7255;53.596;9.960;2022-09-24T12:23:15;101105.09;;;14.91;100.00
14343;BME280;7255;53.596;9.960;2022-09-24T12:25:45;101097.56;;;14.93;100.00
14343;BME280;7255;53.596;9.960;2022-09-24T12:28:14;101103.12;;;15.04;100.00
14343;BME280;7255;53.596;9.960;2022-09-24T12:31:03;101102.16;;;15.10;100.00
14343;BME280;7255;53.596;9.960;2022-09-24T12:33:58;101101.50;;;15.02;100.00
14343;BME280;7255;53.596;9.960;2022-09-24T12:36:29;101094.63;;;15.12;100.00
14343;BME280;7255;53.596;9.960;2022-09-24T12:39:04;101095.44;;;14.95;100.00
14343;BME280;7255;53.596;9.960;2022-09-24T12:41:34;101094.94;;;14.98;100.00
14343;BME280;7255;53.596;9.960;2022-09-24T12:44:07;101095.00;;;15.04;100.00
14343;BME280;7255;53.596;9.960;2022-09-24T12:46:41;101092.31;;;15.04;100.00
14343;BME280;7255;53.596;9.960;2022-09-24T12:49:18;101089.34;;;15.05;100.00
14343;BME280;7255;53.596;9.960;2022-09-24T12:51:51;101091.59;;;15.08;100.00
14343;BME280;7255;53.596;9.960;2022-09-24T12:54:22;101086.88;;;15.04;100.00
14343;BME280;7255;53.596;9.960;2022-09-24T12:57:04;101086.09;;;15.03;100.00
14343;BME280;7255;53.596;9.960;2022-09-24T12:59:30;101086.56;;;15.00;100.00
14343;BME280;7255;53.596;9.960;2022-09-24T13:02:06;101088.69;;;14.98;100.00
14343;BME280;7255;53.596;9.960;2022-09-24T13:04:43;101083.63;;;15.01;100.00
14343;BME280;7255;53.596;9.960;2022-09-24T13:07:27;101086.41;;;14.90;100.00